createdAt,value
2019-06-20T00:03:23.543Z,21.00
2019-06-20T00:08:47.830Z,21.40
2019-06-20T00:14:11.307Z,20.70
2019-06-20T00:19:34.759Z,21.00
2019-06-20T00:24:58.075Z,20.40
2019-06-20T00:30:21.726Z,21.10
2019-06-20T00:35:45.548Z,19.70
2019-06-20T00:41:10.528Z,21.10
2019-06-20T00:46:34.443Z,20.70
2019-06-20T00:51:59.692Z,20.10
2019-06-20T00:57:22.859Z,20.40
2019-06-20T01:02:46.175Z,20.10
2019-06-20T01:08:09.390Z,20.60
2019-06-20T01:13:34.297Z,21.10
2019-06-20T01:18:57.891Z,20.50
2019-06-20T01:24:22.035Z,19.70
2019-06-20T01:29:45.868Z,20.10
2019-06-20T01:35:10.183Z,20.80
2019-06-20T01:40:33.411Z,20.40
2019-06-20T01:45:56.990Z,19.70
2019-06-20T01:51:20.568Z,19.90
2019-06-20T01:56:43.875Z,19.30
2019-06-20T02:02:07.898Z,19.30
2019-06-20T02:07:31.864Z,19.60
2019-06-20T02:12:54.908Z,19.90
2019-06-20T02:18:18.559Z,20.90
2019-06-20T02:23:42.483Z,21.30
2019-06-20T02:29:05.903Z,20.80
2019-06-20T02:34:30.211Z,20.60
2019-06-20T02:39:54.027Z,20.00
2019-06-20T02:45:18.550Z,20.50
2019-06-20T02:50:42.105Z,20.70
2019-06-20T02:56:06.067Z,20.10
2019-06-20T03:01:29.232Z,19.90
2019-06-20T03:06:55.863Z,19.40
2019-06-20T03:12:19.692Z,19.70
2019-06-20T03:17:42.947Z,20.00
2019-06-20T03:23:06.095Z,20.70
2019-06-20T03:28:29.570Z,20.10
2019-06-20T03:33:53.545Z,20.00
2019-06-20T03:39:17.594Z,20.10
2019-06-20T03:44:41.514Z,20.70
2019-06-20T03:50:05.055Z,19.90
2019-06-20T03:55:28.087Z,20.40
2019-06-20T04:00:51.923Z,21.00
2019-06-20T04:06:15.991Z,21.20
2019-06-20T04:11:39.560Z,20.10
2019-06-20T04:17:02.835Z,19.90
2019-06-20T04:22:26.528Z,19.70
2019-06-20T04:27:55.556Z,19.90
2019-06-20T04:33:19.338Z,20.00
2019-06-20T04:38:42.863Z,20.00
2019-06-20T04:44:05.971Z,20.90
2019-06-20T04:49:29.490Z,20.70
2019-06-20T04:54:52.668Z,21.40
2019-06-20T05:00:16.292Z,20.40
2019-06-20T05:05:39.908Z,20.10
2019-06-20T05:11:03.134Z,20.40
2019-06-20T05:16:26.354Z,20.90
2019-06-20T05:21:50.387Z,20.50
2019-06-20T05:27:14.078Z,19.90
2019-06-20T05:32:38.015Z,20.20
2019-06-20T05:38:01.916Z,19.70
2019-06-20T05:43:25.647Z,20.20
2019-06-20T05:48:50.125Z,20.80
2019-06-20T05:54:13.539Z,19.80
2019-06-20T05:59:37.039Z,20.40
2019-06-20T06:05:01.706Z,19.70
2019-06-20T06:10:25.236Z,19.90
2019-06-20T06:15:49.328Z,20.30
2019-06-20T06:21:12.519Z,21.00
2019-06-20T06:26:35.824Z,20.20
2019-06-20T06:31:59.103Z,19.70
2019-06-20T06:37:22.035Z,20.20
2019-06-20T06:42:46.449Z,20.70
2019-06-20T06:48:09.604Z,20.50
2019-06-20T06:53:33.499Z,20.10
2019-06-20T06:58:56.857Z,20.30
2019-06-20T07:04:21.248Z,21.00
2019-06-20T07:09:44.449Z,21.70
2019-06-20T07:15:10.351Z,22.20
2019-06-20T07:20:33.994Z,22.50
2019-06-20T07:25:58.343Z,23.50
2019-06-20T07:31:21.787Z,23.50
2019-06-20T07:36:45.252Z,23.90
2019-06-20T07:42:09.259Z,23.90
2019-06-20T07:47:33.004Z,22.80
2019-06-20T07:53:02.099Z,23.60
2019-06-20T07:58:22.248Z,23.00
2019-06-20T08:03:45.868Z,23.50
2019-06-20T08:09:09.682Z,22.70
2019-06-20T08:14:33.368Z,22.60
2019-06-20T08:19:56.983Z,23.50
2019-06-20T08:25:21.504Z,24.30
2019-06-20T08:30:45.059Z,24.30
2019-06-20T08:36:08.911Z,22.80
2019-06-20T08:41:32.324Z,24.20
2019-06-20T08:46:56.902Z,24.50
2019-06-20T08:52:21.120Z,24.50
2019-06-20T08:57:44.489Z,23.90
2019-06-20T09:03:08.372Z,24.30
2019-06-20T09:08:31.680Z,24.50
2019-06-20T09:13:55.500Z,23.30
2019-06-20T09:19:19.096Z,23.60
2019-06-20T09:24:42.307Z,24.60
2019-06-20T09:30:07.684Z,25.40
2019-06-20T09:35:30.983Z,25.00
2019-06-20T09:40:54.874Z,26.00
2019-06-20T09:46:18.756Z,27.80
2019-06-20T09:51:41.979Z,26.90
2019-06-20T09:57:06.034Z,27.90
2019-06-20T10:02:29.801Z,27.40
2019-06-20T10:07:54.516Z,26.30
2019-06-20T10:13:18.822Z,26.40
2019-06-20T10:18:42.735Z,26.70
2019-06-20T10:24:06.500Z,28.80
2019-06-20T10:29:30.239Z,28.80
2019-06-20T10:34:53.708Z,28.30
2019-06-20T10:40:17.839Z,28.10
2019-06-20T10:45:44.095Z,26.80
2019-06-20T10:51:25.127Z,25.50
2019-06-20T10:56:49.034Z,27.60
2019-06-20T11:02:12.263Z,28.00
2019-06-20T11:07:36.253Z,28.20
2019-06-20T11:12:59.673Z,28.40
2019-06-20T11:18:23.275Z,29.70
2019-06-20T11:23:47.432Z,29.60
2019-06-20T11:29:11.607Z,29.50
2019-06-20T11:34:34.843Z,28.70
2019-06-20T11:39:58.082Z,28.70
2019-06-20T11:45:22.299Z,28.00
2019-06-20T11:50:46.526Z,27.70
2019-06-20T11:56:09.998Z,27.00
2019-06-20T12:01:33.642Z,26.90
2019-06-20T12:06:57.454Z,26.70
2019-06-20T12:12:21.189Z,27.40
2019-06-20T12:17:45.353Z,28.10
2019-06-20T12:23:10.942Z,26.80
2019-06-20T12:28:34.278Z,27.00
2019-06-20T12:33:57.476Z,26.00
2019-06-20T12:39:20.640Z,26.40
2019-06-20T12:44:45.903Z,25.90
2019-06-20T12:50:10.663Z,25.40
2019-06-20T12:55:34.088Z,26.10
2019-06-20T13:00:57.603Z,26.60
2019-06-20T13:06:20.984Z,26.60
2019-06-20T13:11:44.886Z,26.50
2019-06-20T13:17:08.787Z,26.50
2019-06-20T13:22:32.375Z,26.40
2019-06-20T13:27:55.795Z,26.10
2019-06-20T13:33:19.398Z,25.90
2019-06-20T13:38:44.490Z,26.30
2019-06-20T13:44:08.783Z,26.00
2019-06-20T13:49:32.319Z,25.60
2019-06-20T13:54:55.516Z,25.80
2019-06-20T14:00:20.826Z,25.40
2019-06-20T14:05:45.415Z,24.70
2019-06-20T14:11:09.423Z,24.80
2019-06-20T14:16:33.319Z,24.90
2019-06-20T14:21:57.316Z,25.10
2019-06-20T14:27:21.053Z,25.00
2019-06-20T14:32:45.236Z,25.40
2019-06-20T14:38:09.739Z,25.30
2019-06-20T14:43:33.717Z,24.60
2019-06-20T14:48:57.474Z,25.00
2019-06-20T14:54:20.852Z,24.80
2019-06-20T14:59:45.056Z,25.00
2019-06-20T15:05:16.195Z,25.40
2019-06-20T15:10:39.966Z,25.30
2019-06-20T15:16:04.027Z,24.20
2019-06-20T15:21:28.599Z,24.00
2019-06-20T15:26:52.414Z,24.60
2019-06-20T15:32:16.055Z,24.60
2019-06-20T15:37:40.040Z,24.20
2019-06-20T15:43:04.077Z,25.00
2019-06-20T15:48:27.883Z,24.00
2019-06-20T15:53:51.299Z,24.50
2019-06-20T15:59:15.191Z,25.00
2019-06-20T16:04:38.952Z,24.80
2019-06-20T16:10:02.756Z,25.50
2019-06-20T16:15:26.013Z,25.20
2019-06-20T16:20:50.238Z,25.40
2019-06-20T16:26:13.977Z,25.90
2019-06-20T16:31:37.487Z,23.50
2019-06-20T16:37:09.649Z,23.90
2019-06-20T16:42:26.676Z,23.90
2019-06-20T16:47:50.460Z,24.50
2019-06-20T16:53:14.188Z,24.50
2019-06-20T16:58:37.382Z,24.50
2019-06-20T17:04:01.582Z,24.00
2019-06-20T17:09:24.867Z,23.90
2019-06-20T17:14:48.389Z,23.80
2019-06-20T17:20:13.602Z,23.80
2019-06-20T17:25:36.567Z,23.80
2019-06-20T17:30:59.794Z,23.80
2019-06-20T17:36:23.197Z,23.80
2019-06-20T17:41:55.335Z,23.80
2019-06-20T17:47:11.623Z,23.50
2019-06-20T17:52:35.087Z,20.80
2019-06-20T17:57:59.140Z,21.90
2019-06-20T18:03:23.085Z,22.10
2019-06-20T18:08:47.632Z,20.50
2019-06-20T18:14:10.881Z,20.80
2019-06-20T18:19:34.757Z,20.00
2019-06-20T18:24:58.096Z,20.00
2019-06-20T18:30:34.713Z,19.90
2019-06-20T18:35:58.233Z,19.90
2019-06-20T18:41:22.185Z,20.80
2019-06-20T18:46:45.986Z,21.80
2019-06-20T18:52:09.934Z,20.80
2019-06-20T18:57:33.323Z,19.00
2019-06-20T19:02:56.539Z,19.00
2019-06-20T19:08:20.077Z,18.80
2019-06-20T19:13:43.846Z,20.80
2019-06-20T19:19:07.111Z,21.70
2019-06-20T19:24:31.368Z,22.10
2019-06-20T19:29:55.266Z,21.90
2019-06-20T19:35:19.427Z,21.30
2019-06-20T19:40:47.820Z,20.80
2019-06-20T19:46:11.928Z,20.10
2019-06-20T19:51:36.090Z,20.20
2019-06-20T19:57:00.044Z,19.80
2019-06-20T20:02:24.164Z,21.00
2019-06-20T20:07:48.455Z,21.30
2019-06-20T20:13:15.092Z,21.80
2019-06-20T20:18:36.734Z,21.70
2019-06-20T20:24:00.655Z,22.00
2019-06-20T20:29:24.726Z,21.60
2019-06-20T20:34:48.546Z,21.60
2019-06-20T20:40:12.876Z,21.70
2019-06-20T20:45:36.803Z,21.70
2019-06-20T20:51:00.039Z,21.30
2019-06-20T20:56:23.664Z,21.50
2019-06-20T21:01:48.228Z,21.00
2019-06-20T21:07:11.867Z,21.10
2019-06-20T21:12:35.935Z,20.90
2019-06-20T21:17:59.621Z,20.70
2019-06-20T21:23:23.750Z,20.90
2019-06-20T21:28:47.899Z,20.90
2019-06-20T21:34:11.019Z,20.90
2019-06-20T21:39:34.606Z,21.10
2019-06-20T21:44:57.766Z,20.80
2019-06-20T21:50:21.154Z,20.70
2019-06-20T21:55:45.159Z,20.90
2019-06-20T22:01:09.948Z,21.00
2019-06-20T22:06:33.279Z,21.00
2019-06-20T22:11:56.771Z,21.00
2019-06-20T22:17:20.669Z,21.00
2019-06-20T22:22:44.286Z,21.00
2019-06-20T22:28:08.370Z,21.00
2019-06-20T22:33:32.196Z,21.00
2019-06-20T22:38:56.034Z,20.90
2019-06-20T22:44:19.347Z,20.80
2019-06-20T22:49:42.703Z,20.70
2019-06-20T22:55:06.435Z,20.70
2019-06-20T23:00:29.484Z,20.60
2019-06-20T23:05:52.761Z,20.60
2019-06-20T23:11:15.970Z,20.60
2019-06-20T23:16:39.586Z,20.60
2019-06-20T23:22:03.027Z,20.60
2019-06-20T23:27:26.619Z,20.60
2019-06-20T23:32:50.780Z,20.50
2019-06-20T23:38:13.898Z,20.40
2019-06-20T23:43:37.943Z,20.40
2019-06-20T23:49:01.631Z,20.30
2019-06-20T23:54:24.767Z,20.10
2019-06-20T23:59:48.211Z,20.00
